sensor_id;sensor_type;location;lat;lon;timestamp;pressure;altitude;pressure_sealevel;temperature;humidity
10948;BME280;5526;42.070;24.752;2023-03-22T00:02:01;98586.81;;;12.22;100.00
10948;BME280;5526;42.070;24.752;2023-03-22T00:04:28;98584.00;;;12.08;100.00
10948;BME280;5526;42.070;24.752;2023-03-22T00:06:58;98595.19;;;11.90;100.00
10948;BME280;5526;42.070;24.752;2023-03-22T00:09:25;98594.19;;;11.76;100.00
10948;BME280;5526;42.070;24.752;2023-03-22T00:11:52;98592.66;;;11.55;100.00
10948;BME280;5526;42.070;24.752;2023-03-22T00:14:19;98598.19;;;11.54;100.00
10948;BME280;5526;42.070;24.752;2023-03-22T00:16:46;98597.16;;;11.50;100.00
10948;BME280;5526;42.070;24.752;2023-03-22T00:19:14;98591.88;;;11.50;100.00
10948;BME280;5526;42.070;24.752;2023-03-22T00:21:42;98593.50;;;11.46;100.00
10948;BME280;5526;42.070;24.752;2023-03-22T00:24:11;98587.13;;;11.52;100.00
10948;BME280;5526;42.070;24.752;2023-03-22T00:26:38;98592.16;;;11.48;100.00
10948;BME280;5526;42.070;24.752;2023-03-22T00:29:06;98588.75;;;11.43;100.00
10948;BME280;5526;42.070;24.752;2023-03-22T00:31:32;98588.22;;;11.46;100.00
10948;BME280;5526;42.070;24.752;2023-03-22T00:34:00;98578.97;;;11.53;100.00
10948;BME280;5526;42.070;24.752;2023-03-22T00:36:27;98578.19;;;11.48;100.00
10948;BME280;5526;42.070;24.752;2023-03-22T00:38:54;98582.41;;;11.49;100.00
10948;BME280;5526;42.070;24.752;2023-03-22T00:41:22;98578.97;;;11.48;100.00
10948;BME280;5526;42.070;24.752;2023-03-22T00:43:50;98574.50;;;11.49;100.00
10948;BME280;5526;42.070;24.752;2023-03-22T00:46:18;98573.94;;;11.52;100.00
10948;BME280;5526;42.070;24.752;2023-03-22T00:48:46;98583.72;;;11.46;100.00
10948;BME280;5526;42.070;24.752;2023-03-22T00:51:14;98575.06;;;11.41;100.00
10948;BME280;5526;42.070;24.752;2023-03-22T00:53:42;98574.00;;;11.42;100.00
10948;BME280;5526;42.070;24.752;2023-03-22T00:56:10;98579.03;;;11.33;100.00
10948;BME280;5526;42.070;24.752;2023-03-22T00:58:39;98560.63;;;11.23;100.00
10948;BME280;5526;42.070;24.752;2023-03-22T01:01:06;98570.88;;;11.30;100.00
10948;BME280;5526;42.070;24.752;2023-03-22T01:03:33;98574.03;;;11.27;100.00
10948;BME280;5526;42.070;24.752;2023-03-22T01:06:00;98579.31;;;11.27;100.00
10948;BME280;5526;42.070;24.752;2023-03-22T01:08:28;98575.91;;;11.21;100.00
10948;BME280;5526;42.070;24.752;2023-03-22T01:10:58;98581.19;;;11.16;100.00
10948;BME280;5526;42.070;24.752;2023-03-22T01:13:25;98576.72;;;11.07;100.00
10948;BME280;5526;42.070;24.752;2023-03-22T01:15:55;98571.44;;;11.12;100.00
10948;BME280;5526;42.070;24.752;2023-03-22T01:18:22;98575.38;;;11.14;100.00
10948;BME280;5526;42.070;24.752;2023-03-22T01:20:50;98571.72;;;11.15;100.00
10948;BME280;5526;42.070;24.752;2023-03-22T01:23:17;98574.63;;;11.14;100.00
10948;BME280;5526;42.070;24.752;2023-03-22T01:25:44;98575.41;;;11.09;100.00
10948;BME280;5526;42.070;24.752;2023-03-22T01:28:11;98572.53;;;11.06;100.00
10948;BME280;5526;42.070;24.752;2023-03-22T01:30:38;98559.34;;;10.96;100.00
10948;BME280;5526;42.070;24.752;2023-03-22T01:33:07;98572.25;;;10.97;100.00
10948;BME280;5526;42.070;24.752;2023-03-22T01:35:35;98572.25;;;10.97;100.00
10948;BME280;5526;42.070;24.752;2023-03-22T01:38:03;98570.97;;;10.95;100.00
10948;BME280;5526;42.070;24.752;2023-03-22T01:40:31;98569.09;;;10.95;100.00
10948;BME280;5526;42.070;24.752;2023-03-22T01:42:58;98557.78;;;10.85;100.00
10948;BME280;5526;42.070;24.752;2023-03-22T01:45:35;98558.59;;;10.85;100.00
10948;BME280;5526;42.070;24.752;2023-03-22T01:48:11;98554.38;;;10.84;100.00
10948;BME280;5526;42.070;24.752;2023-03-22T01:50:41;98558.34;;;10.87;100.00
10948;BME280;5526;42.070;24.752;2023-03-22T01:53:13;98560.44;;;10.85;100.00
10948;BME280;5526;42.070;24.752;2023-03-22T01:55:44;98561.75;;;10.92;100.00
10948;BME280;5526;42.070;24.752;2023-03-22T01:58:13;98556.75;;;10.91;100.00
10948;BME280;5526;42.070;24.752;2023-03-22T02:00:43;98554.34;;;10.94;100.00
10948;BME280;5526;42.070;24.752;2023-03-22T02:03:14;98563.06;;;10.95;100.00
10948;BME280;5526;42.070;24.752;2023-03-22T02:05:43;98572.81;;;10.74;100.00
10948;BME280;5526;42.070;24.752;2023-03-22T02:08:10;98575.19;;;10.61;100.00
10948;BME280;5526;42.070;24.752;2023-03-22T02:10:39;98568.88;;;10.57;100.00
10948;BME280;5526;42.070;24.752;2023-03-22T02:13:18;98571.50;;;10.57;100.00
10948;BME280;5526;42.070;24.752;2023-03-22T02:15:57;98571.75;;;10.60;100.00
10948;BME280;5526;42.070;24.752;2023-03-22T02:18:42;98574.38;;;10.60;100.00
10948;BME280;5526;42.070;24.752;2023-03-22T02:24:39;98577.56;;;10.62;100.00
10948;BME280;5526;42.070;24.752;2023-03-22T02:27:28;98577.28;;;10.69;100.00
10948;BME280;5526;42.070;24.752;2023-03-22T02:30:18;98579.41;;;10.67;100.00
10948;BME280;5526;42.070;24.752;2023-03-22T02:33:06;98576.25;;;10.55;100.00
10948;BME280;5526;42.070;24.752;2023-03-22T02:35:42;98576.50;;;10.38;100.00
10948;BME280;5526;42.070;24.752;2023-03-22T02:41:30;98582.00;;;10.42;100.00
10948;BME280;5526;42.070;24.752;2023-03-22T02:44:07;98588.59;;;10.44;100.00
10948;BME280;5526;42.070;24.752;2023-03-22T02:46:39;98580.94;;;10.43;100.00
10948;BME280;5526;42.070;24.752;2023-03-22T02:49:15;98588.06;;;10.42;100.00
10948;BME280;5526;42.070;24.752;2023-03-22T02:51:47;98586.75;;;10.40;100.00
10948;BME280;5526;42.070;24.752;2023-03-22T02:54:19;98579.38;;;10.42;100.00
10948;BME280;5526;42.070;24.752;2023-03-22T02:56:53;98580.47;;;10.51;100.00
10948;BME280;5526;42.070;24.752;2023-03-22T02:59:22;98572.00;;;10.54;100.00
10948;BME280;5526;42.070;24.752;2023-03-22T03:01:53;98580.97;;;10.58;100.00
10948;BME280;5526;42.070;24.752;2023-03-22T03:04:25;98579.94;;;10.59;100.00
10948;BME280;5526;42.070;24.752;2023-03-22T03:06:58;98588.59;;;10.64;100.00
10948;BME280;5526;42.070;24.752;2023-03-22T03:09:27;98589.91;;;10.52;100.00
10948;BME280;5526;42.070;24.752;2023-03-22T03:11:56;98591.75;;;10.41;100.00
10948;BME280;5526;42.070;24.752;2023-03-22T03:14:24;98596.22;;;10.36;100.00
10948;BME280;5526;42.070;24.752;2023-03-22T03:17:02;98601.44;;;10.26;100.00
10948;BME280;5526;42.070;24.752;2023-03-22T03:19:36;98599.38;;;10.28;100.00
10948;BME280;5526;42.070;24.752;2023-03-22T03:22:12;98603.56;;;10.29;100.00
10948;BME280;5526;42.070;24.752;2023-03-22T03:24:49;98604.09;;;10.26;100.00
10948;BME280;5526;42.070;24.752;2023-03-22T03:27:26;98605.13;;;10.25;100.00
10948;BME280;5526;42.070;24.752;2023-03-22T03:29:59;98609.59;;;10.19;100.00
10948;BME280;5526;42.070;24.752;2023-03-22T03:32:28;98609.34;;;10.21;100.00
10948;BME280;5526;42.070;24.752;2023-03-22T03:35:04;98615.13;;;10.23;100.00
10948;BME280;5526;42.070;24.752;2023-03-22T03:37:35;98619.34;;;10.24;100.00
10948;BME280;5526;42.070;24.752;2023-03-22T03:40:07;98607.78;;;10.25;100.00
10948;BME280;5526;42.070;24.752;2023-03-22T03:42:39;98623.81;;;10.23;100.00
10948;BME280;5526;42.070;24.752;2023-03-22T03:45:09;98625.13;;;10.26;100.00
10948;BME280;5526;42.070;24.752;2023-03-22T03:47:36;98614.59;;;10.26;100.00
10948;BME280;5526;42.070;24.752;2023-03-22T03:50:04;98618.56;;;10.33;100.00
10948;BME280;5526;42.070;24.752;2023-03-22T03:52:32;98616.72;;;10.24;100.00
10948;BME280;5526;42.070;24.752;2023-03-22T03:54:59;98620.66;;;10.31;100.00
10948;BME280;5526;42.070;24.752;2023-03-22T03:57:26;98613.31;;;10.38;100.00
10948;BME280;5526;42.070;24.752;2023-03-22T03:59:54;98628.84;;;10.45;100.00
10948;BME280;5526;42.070;24.752;2023-03-22T04:02:21;98620.69;;;10.51;100.00
10948;BME280;5526;42.070;24.752;2023-03-22T04:04:48;98624.66;;;10.59;100.00
10948;BME280;5526;42.070;24.752;2023-03-22T04:07:15;98634.13;;;10.65;100.00
10948;BME280;5526;42.070;24.752;2023-03-22T04:09:42;98628.09;;;10.69;100.00
10948;BME280;5526;42.070;24.752;2023-03-22T04:12:09;98639.13;;;10.71;100.00
10948;BME280;5526;42.070;24.752;2023-03-22T04:14:42;98636.22;;;10.73;100.00
10948;BME280;5526;42.070;24.752;2023-03-22T04:17:10;98632.03;;;10.67;100.00
10948;BME280;5526;42.070;24.752;2023-03-22T04:19:37;98635.19;;;10.69;100.00
10948;BME280;5526;42.070;24.752;2023-03-22T04:22:05;98636.75;;;10.65;100.00
10948;BME280;5526;42.070;24.752;2023-03-22T04:24:39;98639.94;;;10.72;100.00
10948;BME280;5526;42.070;24.752;2023-03-22T04:27:06;98635.19;;;10.69;100.00
10948;BME280;5526;42.070;24.752;2023-03-22T04:29:34;98644.41;;;10.76;100.00
10948;BME280;5526;42.070;24.752;2023-03-22T04:32:01;98644.66;;;10.75;100.00
10948;BME280;5526;42.070;24.752;2023-03-22T04:34:30;98648.06;;;10.70;100.00
10948;BME280;5526;42.070;24.752;2023-03-22T04:36:57;98643.06;;;10.74;100.00
10948;BME280;5526;42.070;24.752;2023-03-22T04:39:27;98640.72;;;10.77;100.00
10948;BME280;5526;42.070;24.752;2023-03-22T04:41:53;98649.38;;;10.78;100.00
10948;BME280;5526;42.070;24.752;2023-03-22T04:44:21;98641.78;;;10.76;100.00
10948;BME280;5526;42.070;24.752;2023-03-22T04:46:48;98647.28;;;10.80;100.00
10948;BME280;5526;42.070;24.752;2023-03-22T04:49:15;98646.22;;;10.81;100.00
10948;BME280;5526;42.070;24.752;2023-03-22T04:51:44;98653.06;;;10.77;100.00
10948;BME280;5526;42.070;24.752;2023-03-22T04:54:11;98657.28;;;10.73;100.00
10948;BME280;5526;42.070;24.752;2023-03-22T04:56:38;98650.97;;;10.69;100.00
10948;BME280;5526;42.070;24.752;2023-03-22T04:59:05;98653.34;;;10.65;100.00
10948;BME280;5526;42.070;24.752;2023-03-22T05:01:32;98650.19;;;10.73;100.00
10948;BME280;5526;42.070;24.752;2023-03-22T05:03:59;98660.44;;;10.85;100.00
10948;BME280;5526;42.070;24.752;2023-03-22T05:06:26;98662.03;;;10.81;100.00
10948;BME280;5526;42.070;24.752;2023-03-22T05:08:58;98662.81;;;10.61;100.00
10948;BME280;5526;42.070;24.752;2023-03-22T05:11:25;98663.59;;;10.52;100.00
10948;BME280;5526;42.070;24.752;2023-03-22T05:13:52;98662.50;;;10.43;100.00
10948;BME280;5526;42.070;24.752;2023-03-22T05:16:20;98663.81;;;10.30;100.00
10948;BME280;5526;42.070;24.752;2023-03-22T05:18:47;98669.00;;;10.10;100.00
10948;BME280;5526;42.070;24.752;2023-03-22T05:21:20;98675.31;;;10.14;100.00
10948;BME280;5526;42.070;24.752;2023-03-22T05:23:53;98681.66;;;10.18;100.00
10948;BME280;5526;42.070;24.752;2023-03-22T05:26:23;98682.72;;;10.32;100.00
10948;BME280;5526;42.070;24.752;2023-03-22T05:28:51;98689.78;;;10.17;100.00
10948;BME280;5526;42.070;24.752;2023-03-22T05:31:18;98686.09;;;10.18;100.00
10948;BME280;5526;42.070;24.752;2023-03-22T05:33:46;98703.13;;;10.05;100.00
10948;BME280;5526;42.070;24.752;2023-03-22T05:36:15;98713.94;;;10.09;100.00
10948;BME280;5526;42.070;24.752;2023-03-22T05:38:43;98702.00;;;9.91;100.00
10948;BME280;5526;42.070;24.752;2023-03-22T05:41:11;98715.91;;;9.87;100.00
10948;BME280;5526;42.070;24.752;2023-03-22T05:43:40;98715.91;;;9.87;100.00
10948;BME280;5526;42.070;24.752;2023-03-22T05:46:08;98717.00;;;9.96;100.00
10948;BME280;5526;42.070;24.752;2023-03-22T05:48:36;98715.13;;;9.86;100.00
10948;BME280;5526;42.070;24.752;2023-03-22T05:51:05;98713.84;;;9.94;100.00
10948;BME280;5526;42.070;24.752;2023-03-22T05:53:32;98718.13;;;10.05;100.00
10948;BME280;5526;42.070;24.752;2023-03-22T05:55:59;98721.97;;;9.92;100.00
10948;BME280;5526;42.070;24.752;2023-03-22T05:58:26;98722.78;;;9.93;100.00
10948;BME280;5526;42.070;24.752;2023-03-22T06:00:56;98709.09;;;9.91;100.00
10948;BME280;5526;42.070;24.752;2023-03-22T06:03:26;98726.50;;;9.97;100.00
10948;BME280;5526;42.070;24.752;2023-03-22T06:05:53;98727.22;;;9.87;100.00
10948;BME280;5526;42.070;24.752;2023-03-22T06:08:20;98742.03;;;10.03;100.00
10948;BME280;5526;42.070;24.752;2023-03-22T06:10:48;98746.16;;;9.89;100.00
10948;BME280;5526;42.070;24.752;2023-03-22T06:13:17;98753.31;;;10.04;100.00
10948;BME280;5526;42.070;24.752;2023-03-22T06:15:44;98740.41;;;9.97;100.00
10948;BME280;5526;42.070;24.752;2023-03-22T06:18:13;98754.22;;;10.14;100.00
10948;BME280;5526;42.070;24.752;2023-03-22T06:20:40;98752.91;;;10.22;100.00
10948;BME280;5526;42.070;24.752;2023-03-22T06:23:07;98757.94;;;10.28;100.00
10948;BME280;5526;42.070;24.752;2023-03-22T06:25:34;98757.69;;;10.30;100.00
10948;BME280;5526;42.070;24.752;2023-03-22T06:28:01;98762.44;;;10.38;100.00
10948;BME280;5526;42.070;24.752;2023-03-22T06:30:28;98765.66;;;10.50;100.00
10948;BME280;5526;42.070;24.752;2023-03-22T06:32:55;98777.22;;;10.49;100.00
10948;BME280;5526;42.070;24.752;2023-03-22T06:35:26;98777.03;;;10.65;100.00
10948;BME280;5526;42.070;24.752;2023-03-22T06:37:53;98786.50;;;10.71;100.00
10948;BME280;5526;42.070;24.752;2023-03-22T06:40:20;98792.59;;;10.82;100.00
10948;BME280;5526;42.070;24.752;2023-03-22T06:42:47;98795.22;;;10.82;100.00
10948;BME280;5526;42.070;24.752;2023-03-22T06:45:14;98786.81;;;10.80;100.00
10948;BME280;5526;42.070;24.752;2023-03-22T06:47:42;98789.44;;;10.75;100.00
10948;BME280;5526;42.070;24.752;2023-03-22T06:50:09;98795.75;;;10.79;100.00
10948;BME280;5526;42.070;24.752;2023-03-22T06:52:38;98796.56;;;10.94;100.00
10948;BME280;5526;42.070;24.752;2023-03-22T06:55:05;98800.81;;;11.00;100.00
10948;BME280;5526;42.070;24.752;2023-03-22T06:57:33;98807.91;;;11.00;100.00
10948;BME280;5526;42.070;24.752;2023-03-22T07:00:00;98800.03;;;11.10;100.00
10948;BME280;5526;42.070;24.752;2023-03-22T07:02:27;98793.19;;;11.24;100.00
10948;BME280;5526;42.070;24.752;2023-03-22T07:04:54;98801.09;;;11.29;100.00
10948;BME280;5526;42.070;24.752;2023-03-22T07:07:21;98814.53;;;11.32;100.00
10948;BME280;5526;42.070;24.752;2023-03-22T07:09:49;98813.78;;;11.37;100.00
10948;BME280;5526;42.070;24.752;2023-03-22T07:12:17;98806.91;;;11.46;100.00
10948;BME280;5526;42.070;24.752;2023-03-22T07:14:45;98811.66;;;11.54;100.00
10948;BME280;5526;42.070;24.752;2023-03-22T07:17:12;98811.41;;;11.65;100.00
10948;BME280;5526;42.070;24.752;2023-03-22T07:19:39;98804.84;;;11.73;100.00
10948;BME280;5526;42.070;24.752;2023-03-22T07:22:07;98805.34;;;11.75;100.00
10948;BME280;5526;42.070;24.752;2023-03-22T07:24:34;98803.78;;;11.74;100.00
10948;BME280;5526;42.070;24.752;2023-03-22T07:27:02;98788.50;;;11.66;100.00
10948;BME280;5526;42.070;24.752;2023-03-22T07:29:30;98775.56;;;11.59;100.00
10948;BME280;5526;42.070;24.752;2023-03-22T07:31:57;98782.94;;;11.52;100.00
10948;BME280;5526;42.070;24.752;2023-03-22T07:34:24;98762.63;;;11.48;100.00
10948;BME280;5526;42.070;24.752;2023-03-22T07:36:51;98759.75;;;11.44;100.00
10948;BME280;5526;42.070;24.752;2023-03-22T07:39:21;98756.84;;;11.46;100.00
10948;BME280;5526;42.070;24.752;2023-03-22T07:41:49;98759.22;;;11.42;100.00
10948;BME280;5526;42.070;24.752;2023-03-22T07:44:18;98766.56;;;11.50;100.00
10948;BME280;5526;42.070;24.752;2023-03-22T07:46:45;98765.00;;;11.59;100.00
10948;BME280;5526;42.070;24.752;2023-03-22T07:49:13;98770.28;;;11.69;100.00
10948;BME280;5526;42.070;24.752;2023-03-22T07:51:40;98766.06;;;11.68;100.00
10948;BME280;5526;42.070;24.752;2023-03-22T07:54:07;98771.09;;;11.70;100.00
10948;BME280;5526;42.070;24.752;2023-03-22T07:56:34;98781.88;;;11.88;100.00
10948;BME280;5526;42.070;24.752;2023-03-22T07:59:01;98782.66;;;11.79;100.00
10948;BME280;5526;42.070;24.752;2023-03-22T08:01:30;98792.94;;;11.55;100.00
10948;BME280;5526;42.070;24.752;2023-03-22T08:03:57;98789.25;;;11.26;100.00
10948;BME280;5526;42.070;24.752;2023-03-22T08:06:24;98789.50;;;11.20;100.00
10948;BME280;5526;42.070;24.752;2023-03-22T08:08:51;98801.63;;;11.31;100.00
10948;BME280;5526;42.070;24.752;2023-03-22T08:11:18;98811.63;;;11.29;100.00
10948;BME280;5526;42.070;24.752;2023-03-22T08:13:45;98819.03;;;11.57;100.00
10948;BME280;5526;42.070;24.752;2023-03-22T08:16:12;98836.19;;;11.64;100.00
10948;BME280;5526;42.070;24.752;2023-03-22T08:18:40;98842.75;;;11.47;100.00
10948;BME280;5526;42.070;24.752;2023-03-22T08:21:07;98850.03;;;12.55;100.00
10948;BME280;5526;42.070;24.752;2023-03-22T08:23:35;98851.72;;;11.91;100.00
10948;BME280;5526;42.070;24.752;2023-03-22T08:26:02;98838.03;;;11.64;100.00
10948;BME280;5526;42.070;24.752;2023-03-22T08:28:29;98855.41;;;11.60;100.00
10948;BME280;5526;42.070;24.752;2023-03-22T08:30:56;98853.03;;;11.53;100.00
10948;BME280;5526;42.070;24.752;2023-03-22T08:33:23;98856.19;;;11.55;100.00
10948;BME280;5526;42.070;24.752;2023-03-22T08:35:51;98857.53;;;11.63;100.00
10948;BME280;5526;42.070;24.752;2023-03-22T08:38:29;98864.13;;;11.60;100.00
10948;BME280;5526;42.070;24.752;2023-03-22T08:40:56;98862.31;;;11.61;100.00
10948;BME280;5526;42.070;24.752;2023-03-22T08:43:23;98827.19;;;11.40;100.00
10948;BME280;5526;42.070;24.752;2023-03-22T08:45:51;98846.47;;;11.66;100.00
10948;BME280;5526;42.070;24.752;2023-03-22T08:48:18;98859.66;;;11.91;100.00
10948;BME280;5526;42.070;24.752;2023-03-22T08:50:45;98851.72;;;12.11;100.00
10948;BME280;5526;42.070;24.752;2023-03-22T08:53:13;98844.56;;;12.31;100.00
10948;BME280;5526;42.070;24.752;2023-03-22T08:55:40;98852.66;;;12.50;100.00
10948;BME280;5526;42.070;24.752;2023-03-22T08:58:10;98851.59;;;12.61;100.00
10948;BME280;5526;42.070;24.752;2023-03-22T09:00:37;98848.78;;;12.37;100.00
10948;BME280;5526;42.070;24.752;2023-03-22T09:03:04;98856.44;;;12.29;100.00
10948;BME280;5526;42.070;24.752;2023-03-22T09:05:31;98861.19;;;12.22;100.00
10948;BME280;5526;42.070;24.752;2023-03-22T09:07:59;98855.09;;;12.41;100.00
10948;BME280;5526;42.070;24.752;2023-03-22T09:10:28;98851.03;;;12.74;100.00
10948;BME280;5526;42.070;24.752;2023-03-22T09:12:55;98855.16;;;12.95;100.00
10948;BME280;5526;42.070;24.752;2023-03-22T09:15:22;98856.53;;;12.87;100.00
10948;BME280;5526;42.070;24.752;2023-03-22T09:17:49;98855.75;;;12.82;100.00
10948;BME280;5526;42.070;24.752;2023-03-22T09:20:16;98850.19;;;12.78;100.00
10948;BME280;5526;42.070;24.752;2023-03-22T09:22:43;98853.00;;;12.97;100.00
10948;BME280;5526;42.070;24.752;2023-03-22T09:25:10;98855.94;;;13.01;100.00
10948;BME280;5526;42.070;24.752;2023-03-22T09:27:38;98847.28;;;12.80;100.00
10948;BME280;5526;42.070;24.752;2023-03-22T09:30:06;98853.38;;;12.75;100.00
10948;BME280;5526;42.070;24.752;2023-03-22T09:32:34;98854.16;;;12.76;100.00
10948;BME280;5526;42.070;24.752;2023-03-22T09:35:01;98856.56;;;12.67;100.00
10948;BME280;5526;42.070;24.752;2023-03-22T09:37:28;98850.50;;;12.72;100.00
10948;BME280;5526;42.070;24.752;2023-03-22T09:39:55;98852.06;;;12.78;100.00
10948;BME280;5526;42.070;24.752;2023-03-22T09:42:28;98853.56;;;12.94;100.00
10948;BME280;5526;42.070;24.752;2023-03-22T09:45:00;98849.06;;;13.05;100.00
10948;BME280;5526;42.070;24.752;2023-03-22T09:47:33;98840.69;;;12.77;100.00
10948;BME280;5526;42.070;24.752;2023-03-22T09:50:06;98840.88;;;12.96;100.00
10948;BME280;5526;42.070;24.752;2023-03-22T09:52:34;98833.63;;;13.22;100.00
10948;BME280;5526;42.070;24.752;2023-03-22T09:55:01;98825.16;;;13.25;100.00
10948;BME280;5526;42.070;24.752;2023-03-22T09:57:31;98833.22;;;13.43;100.00
10948;BME280;5526;42.070;24.752;2023-03-22T10:00:10;98827.75;;;13.35;100.00
10948;BME280;5526;42.070;24.752;2023-03-22T10:02:49;98838.78;;;13.42;100.00
10948;BME280;5526;42.070;24.752;2023-03-22T10:05:23;98833.66;;;13.55;100.00
10948;BME280;5526;42.070;24.752;2023-03-22T10:08:07;98834.34;;;13.32;100.00
10948;BME280;5526;42.070;24.752;2023-03-22T10:10:38;98836.44;;;13.35;100.00
10948;BME280;5526;42.070;24.752;2023-03-22T10:13:14;98839.09;;;13.35;100.00
10948;BME280;5526;42.070;24.752;2023-03-22T10:15:49;98842.88;;;13.58;100.00
10948;BME280;5526;42.070;24.752;2023-03-22T10:18:19;98842.69;;;13.49;100.00
10948;BME280;5526;42.070;24.752;2023-03-22T10:20:52;98833.31;;;13.33;100.00
10948;BME280;5526;42.070;24.752;2023-03-22T10:23:26;98841.13;;;13.43;100.00
10948;BME280;5526;42.070;24.752;2023-03-22T10:25:56;98823.44;;;13.00;100.00
10948;BME280;5526;42.070;24.752;2023-03-22T10:28:29;98835.09;;;13.43;100.00
10948;BME280;5526;42.070;24.752;2023-03-22T10:30:59;98827.66;;;13.78;100.00
10948;BME280;5526;42.070;24.752;2023-03-22T10:33:32;98834.19;;;13.57;100.00
10948;BME280;5526;42.070;24.752;2023-03-22T10:36:02;98834.56;;;13.74;100.00
10948;BME280;5526;42.070;24.752;2023-03-22T10:38:30;98832.78;;;13.65;100.00
10948;BME280;5526;42.070;24.752;2023-03-22T10:41:01;98827.75;;;13.68;100.00
10948;BME280;5526;42.070;24.752;2023-03-22T10:43:31;98824.13;;;13.88;100.00
10948;BME280;5526;42.070;24.752;2023-03-22T10:46:04;98813.34;;;13.79;100.00
10948;BME280;5526;42.070;24.752;2023-03-22T10:48:35;98827.97;;;13.38;100.00
10948;BME280;5526;42.070;24.752;2023-03-22T10:51:05;98811.75;;;13.50;100.00
10948;BME280;5526;42.070;24.752;2023-03-22T10:53:36;98808.50;;;13.91;100.00
10948;BME280;5526;42.070;24.752;2023-03-22T10:56:08;98821.81;;;14.10;100.00
10948;BME280;5526;42.070;24.752;2023-03-22T10:58:37;98810.31;;;14.24;100.00
10948;BME280;5526;42.070;24.752;2023-03-22T11:01:07;98811.63;;;14.69;100.00
10948;BME280;5526;42.070;24.752;2023-03-22T11:03:38;98808.91;;;14.74;100.00
10948;BME280;5526;42.070;24.752;2023-03-22T11:06:08;98820.34;;;14.69;100.00
10948;BME280;5526;42.070;24.752;2023-03-22T11:08:42;98811.16;;;14.85;100.00
10948;BME280;5526;42.070;24.752;2023-03-22T11:11:19;98804.50;;;14.88;100.00
10948;BME280;5526;42.070;24.752;2023-03-22T11:13:53;98801.34;;;15.04;100.00
10948;BME280;5526;42.070;24.752;2023-03-22T11:16:23;98794.81;;;15.15;100.00
10948;BME280;5526;42.070;24.752;2023-03-22T11:18:50;98799.34;;;15.15;100.00
10948;BME280;5526;42.070;24.752;2023-03-22T11:21:18;98800.47;;;15.27;100.00
10948;BME280;5526;42.070;24.752;2023-03-22T11:23:54;98799.13;;;15.11;100.00
10948;BME280;5526;42.070;24.752;2023-03-22T11:26:32;98805.78;;;14.90;100.00
10948;BME280;5526;42.070;24.752;2023-03-22T11:29:04;98806.34;;;14.87;100.00
10948;BME280;5526;42.070;24.752;2023-03-22T11:31:51;98795.13;;;14.95;100.00
10948;BME280;5526;42.070;24.752;2023-03-22T11:34:20;98799.19;;;15.25;100.00
10948;BME280;5526;42.070;24.752;2023-03-22T11:36:49;98793.13;;;15.24;100.00
10948;BME280;5526;42.070;24.752;2023-03-22T11:39:22;98794.13;;;14.91;100.00
10948;BME280;5526;42.070;24.752;2023-03-22T11:41:51;98788.69;;;15.01;100.00
10948;BME280;5526;42.070;24.752;2023-03-22T11:44:21;98798.28;;;14.97;99.77
10948;BME280;5526;42.070;24.752;2023-03-22T11:46:52;98783.75;;;15.13;99.57
10948;BME280;5526;42.070;24.752;2023-03-22T11:49:24;98771.97;;;15.19;99.12
10948;BME280;5526;42.070;24.752;2023-03-22T11:51:53;98780.34;;;15.63;100.00
10948;BME280;5526;42.070;24.752;2023-03-22T11:54:27;98785.97;;;15.75;97.05
10948;BME280;5526;42.070;24.752;2023-03-22T11:56:57;98781.22;;;15.72;97.23
10948;BME280;5526;42.070;24.752;2023-03-22T11:59:28;98780.28;;;15.95;96.43
10948;BME280;5526;42.070;24.752;2023-03-22T12:02:03;98789.94;;;16.05;91.53
10948;BME280;5526;42.070;24.752;2023-03-22T12:04:35;98786.50;;;16.04;90.25
10948;BME280;5526;42.070;24.752;2023-03-22T12:07:10;98784.41;;;16.01;88.25
10948;BME280;5526;42.070;24.752;2023-03-22T12:09:43;98788.31;;;15.90;90.63
10948;BME280;5526;42.070;24.752;2023-03-22T12:12:15;98785.78;;;15.53;90.30
10948;BME280;5526;42.070;24.752;2023-03-22T12:14:48;98783.00;;;15.26;88.82
10948;BME280;5526;42.070;24.752;2023-03-22T12:17:25;98792.75;;;15.31;85.54
10948;BME280;5526;42.070;24.752;2023-03-22T12:20:02;98785.22;;;15.56;83.14
10948;BME280;5526;42.070;24.752;2023-03-22T12:22:34;98782.53;;;15.88;83.86
10948;BME280;5526;42.070;24.752;2023-03-22T12:25:01;98774.72;;;16.10;86.16
10948;BME280;5526;42.070;24.752;2023-03-22T12:27:32;98783.66;;;16.01;87.16
10948;BME280;5526;42.070;24.752;2023-03-22T12:30:04;98792.00;;;16.35;86.33
10948;BME280;5526;42.070;24.752;2023-03-22T12:32:36;98782.56;;;16.02;83.38
10948;BME280;5526;42.070;24.752;2023-03-22T12:35:10;98784.81;;;15.95;82.61
10948;BME280;5526;42.070;24.752;2023-03-22T12:37:40;98784.47;;;15.37;86.66
10948;BME280;5526;42.070;24.752;2023-03-22T12:40:19;98789.69;;;15.42;85.96
10948;BME280;5526;42.070;24.752;2023-03-22T12:42:53;98787.03;;;15.42;86.05
10948;BME280;5526;42.070;24.752;2023-03-22T12:45:25;98793.47;;;15.55;86.10
10948;BME280;5526;42.070;24.752;2023-03-22T12:47:59;98797.91;;;15.59;89.92
10948;BME280;5526;42.070;24.752;2023-03-22T12:50:33;98783.00;;;15.45;87.98
10948;BME280;5526;42.070;24.752;2023-03-22T12:53:02;98792.00;;;15.62;85.89
10948;BME280;5526;42.070;24.752;2023-03-22T12:55:32;98793.91;;;15.75;84.42
10948;BME280;5526;42.070;24.752;2023-03-22T12:58:00;98790.25;;;15.21;82.88
10948;BME280;5526;42.070;24.752;2023-03-22T13:00:32;98793.47;;;14.99;77.15
10948;BME280;5526;42.070;24.752;2023-03-22T13:03:05;98794.41;;;15.45;79.56
10948;BME280;5526;42.070;24.752;2023-03-22T13:05:35;98802.91;;;15.61;79.75
10948;BME280;5526;42.070;24.752;2023-03-22T13:08:02;98794.88;;;15.66;76.91
10948;BME280;5526;42.070;24.752;2023-03-22T13:10:47;98794.16;;;15.60;73.68
10948;BME280;5526;42.070;24.752;2023-03-22T13:13:16;98800.03;;;15.89;74.28